Time;durP1;ratioP1;P1;durP2;ratioP2;P2;SDS_P1;SDS_P2;PMS_P1;PMS_P2;Temp;Humidity;BMP_temperature;BMP_pressure;BME280_temperature;BME280_humidity;BME280_pressure;Samples;Min_cycle;Max_cycle;Signal;HPM_P1;HPM_P2
2023/09/14 00:01:13;;;;;;;4.95;1.63;;;16.50;99.90;;;;;;5083187;28;20059;-42
2023/09/14 00:03:38;;;;;;;3.05;1.58;;;16.50;99.90;;;;;;5083823;28;20019;-42
2023/09/14 00:06:04;;;;;;;2.78;1.38;;;16.50;99.90;;;;;;5083876;28;20028;-42
2023/09/14 00:08:33;;;;;;;4.03;1.55;;;16.50;99.90;;;;;;5084571;28;20044;-42
2023/09/14 00:11:01;;;;;;;5.30;1.40;;;16.50;99.90;;;;;;5083893;28;20030;-42
2023/09/14 00:13:26;;;;;;;4.35;1.60;;;16.50;99.90;;;;;;5084347;28;20380;-42
2023/09/14 00:15:52;;;;;;;3.08;1.95;;;16.50;99.90;;;;;;5084426;28;20452;-42
2023/09/14 00:18:19;;;;;;;3.42;1.92;;;16.50;99.90;;;;;;5083821;28;20028;-42
2023/09/14 00:20:44;;;;;;;5.22;1.92;;;16.50;99.90;;;;;;5084988;28;20031;-43
2023/09/14 00:23:10;;;;;;;2.22;1.30;;;16.50;99.90;;;;;;5083442;28;20039;-43
2023/09/14 00:25:36;;;;;;;3.22;1.60;;;16.50;99.90;;;;;;5084164;28;20020;-43
2023/09/14 00:28:01;;;;;;;3.92;1.40;;;16.60;99.90;;;;;;5084356;28;20067;-43
2023/09/14 00:30:27;;;;;;;3.75;1.60;;;16.50;99.90;;;;;;5084020;28;20831;-43
2023/09/14 00:32:52;;;;;;;2.97;1.35;;;16.60;99.90;;;;;;5084910;28;20372;-42
2023/09/14 00:35:19;;;;;;;3.13;1.70;;;16.60;99.90;;;;;;5083807;28;20115;-42
2023/09/14 00:37:48;;;;;;;3.38;1.60;;;16.60;99.90;;;;;;5063812;28;20060;-42
2023/09/14 00:40:15;;;;;;;3.15;1.65;;;16.60;99.90;;;;;;5077165;28;20433;-42
2023/09/14 00:42:46;;;;;;;2.78;1.30;;;16.60;99.90;;;;;;5084430;28;20016;-42
2023/09/14 00:45:14;;;;;;;2.65;1.40;;;16.60;99.90;;;;;;5087144;28;20391;-42
2023/09/14 00:47:43;;;;;;;5.57;1.80;;;16.50;99.90;;;;;;5088173;28;20035;-42
2023/09/14 00:50:10;;;;;;;3.17;1.40;;;16.50;99.90;;;;;;5087824;28;20027;-42
2023/09/14 00:52:37;;;;;;;3.08;1.35;;;16.60;99.90;;;;;;5086968;28;20074;-43
2023/09/14 00:55:10;;;;;;;4.10;1.90;;;16.60;99.90;;;;;;5087531;28;20121;-43
2023/09/14 00:57:46;;;;;;;3.80;1.55;;;16.60;99.90;;;;;;5088032;28;20482;-43
2023/09/14 01:00:13;;;;;;;2.88;1.25;;;16.60;99.90;;;;;;5086675;28;20122;-43
2023/09/14 01:02:45;;;;;;;6.00;1.63;;;16.60;99.90;;;;;;5087349;28;20534;-42
2023/09/14 01:05:15;;;;;;;3.58;1.25;;;16.60;99.90;;;;;;5087630;28;20371;-42
2023/09/14 01:07:41;;;;;;;2.53;1.45;;;16.60;99.90;;;;;;5086942;28;20451;-42
2023/09/14 01:10:09;;;;;;;2.40;1.30;;;16.60;99.90;;;;;;5087419;28;20039;-42
2023/09/14 01:12:35;;;;;;;4.63;1.60;;;16.60;99.90;;;;;;5087408;28;20016;-43
2023/09/14 01:15:25;;;;;;;3.47;1.38;;;16.60;99.90;;;;;;5087328;28;20043;-42
2023/09/14 01:18:25;;;;;;;2.95;1.05;;;16.60;99.90;;;;;;5087512;28;20062;-42
2023/09/14 01:21:24;;;;;;;2.63;1.45;;;16.70;99.90;;;;;;5086939;28;20027;-42
2023/09/14 01:24:25;;;;;;;3.13;1.27;;;16.60;99.90;;;;;;5079070;28;20056;-42
2023/09/14 01:26:51;;;;;;;2.30;1.38;;;16.60;99.90;;;;;;5086676;28;20034;-42
2023/09/14 01:29:17;;;;;;;2.78;1.70;;;16.60;99.90;;;;;;5087784;28;20031;-42
2023/09/14 01:31:42;;;;;;;2.05;1.45;;;16.60;99.90;;;;;;5086824;28;20893;-42
2023/09/14 01:34:11;;;;;;;3.30;1.52;;;16.60;99.90;;;;;;5086340;28;20031;-42
2023/09/14 01:36:52;;;;;;;5.93;1.27;;;16.60;99.90;;;;;;5087529;28;20030;-42
2023/09/14 01:39:18;;;;;;;2.67;1.48;;;16.60;99.90;;;;;;5086661;28;20081;-43
2023/09/14 01:41:44;;;;;;;2.88;1.30;;;16.60;99.90;;;;;;5086385;28;20028;-43
2023/09/14 01:44:11;;;;;;;3.83;1.45;;;16.50;99.90;;;;;;5086879;28;20035;-43
2023/09/14 01:46:38;;;;;;;6.03;1.33;;;16.50;99.90;;;;;;5086772;28;20027;-43
2023/09/14 01:49:04;;;;;;;3.30;1.48;;;16.50;99.90;;;;;;5085847;28;20036;-43
2023/09/14 01:51:29;;;;;;;4.25;1.40;;;16.50;99.90;;;;;;5087162;28;20066;-43
2023/09/14 01:53:55;;;;;;;2.63;1.35;;;16.40;99.90;;;;;;5086414;28;20379;-44
2023/09/14 01:56:21;;;;;;;7.65;1.95;;;16.40;99.90;;;;;;5084360;28;20119;-43
2023/09/14 01:58:46;;;;;;;4.47;1.05;;;16.40;99.90;;;;;;5086761;28;20040;-42
2023/09/14 02:01:12;;;;;;;2.55;1.27;;;16.30;99.90;;;;;;5086523;28;20055;-42
2023/09/14 02:03:38;;;;;;;3.25;1.52;;;16.30;99.90;;;;;;5085731;28;20040;-42
2023/09/14 02:06:05;;;;;;;2.60;1.45;;;16.30;99.90;;;;;;5086670;28;20048;-43
2023/09/14 02:08:31;;;;;;;3.58;1.77;;;16.30;99.90;;;;;;5086748;28;20050;-42
2023/09/14 02:10:57;;;;;;;3.55;1.27;;;16.30;99.90;;;;;;5086303;28;20086;-42
2023/09/14 02:13:22;;;;;;;2.55;1.30;;;16.20;99.90;;;;;;5086706;28;20023;-42
2023/09/14 02:15:51;;;;;;;2.95;1.42;;;16.20;99.90;;;;;;5085838;28;20016;-42
2023/09/14 02:18:16;;;;;;;3.67;1.58;;;16.20;99.90;;;;;;5085660;28;20027;-41
2023/09/14 02:20:43;;;;;;;3.70;2.25;;;16.20;99.90;;;;;;5086676;28;20024;-42
2023/09/14 02:23:09;;;;;;;10.00;1.58;;;16.10;99.90;;;;;;5085157;28;20028;-42
2023/09/14 02:25:34;;;;;;;3.85;1.30;;;16.10;99.90;;;;;;5086740;28;20035;-42
2023/09/14 02:28:00;;;;;;;3.47;1.13;;;16.10;99.90;;;;;;5085089;28;20024;-43
2023/09/14 02:30:26;;;;;;;2.58;1.50;;;16.00;99.90;;;;;;5085426;28;20024;-42
2023/09/14 02:32:58;;;;;;;4.13;1.40;;;16.00;99.90;;;;;;5086727;28;20024;-41
2023/09/14 02:35:29;;;;;;;2.92;1.33;;;15.90;99.90;;;;;;5086125;28;20066;-42
2023/09/14 02:37:55;;;;;;;6.25;1.80;;;15.90;99.90;;;;;;5085830;28;20024;-42
2023/09/14 02:40:21;;;;;;;4.40;1.77;;;15.90;99.90;;;;;;5085147;28;20029;-41
2023/09/14 02:42:46;;;;;;;3.45;1.60;;;15.80;99.90;;;;;;5086158;28;20709;-42
2023/09/14 02:45:12;;;;;;;2.97;1.58;;;15.80;99.90;;;;;;5084419;28;20055;-42
2023/09/14 02:47:37;;;;;;;2.20;1.27;;;15.70;99.90;;;;;;5086077;28;20097;-42
2023/09/14 02:50:03;;;;;;;4.55;1.38;;;15.70;99.90;;;;;;5085248;28;20856;-42
2023/09/14 02:52:29;;;;;;;2.58;1.40;;;15.70;99.90;;;;;;5085100;28;20032;-42
2023/09/14 02:54:54;;;;;;;3.40;1.50;;;15.60;99.90;;;;;;5085751;28;20107;-42
2023/09/14 02:57:20;;;;;;;3.40;1.50;;;15.60;99.90;;;;;;5085502;28;20032;-42
2023/09/14 02:59:46;;;;;;;4.55;1.70;;;15.60;99.90;;;;;;5084470;28;20027;-42
2023/09/14 03:02:11;;;;;;;1.50;1.17;;;15.50;99.90;;;;;;5084604;28;20050;-42
2023/09/14 03:04:37;;;;;;;3.35;1.50;;;15.50;99.90;;;;;;5085693;28;20044;-42
2023/09/14 03:07:03;;;;;;;4.57;1.40;;;15.50;99.90;;;;;;5084071;28;20028;-42
2023/09/14 03:09:28;;;;;;;3.67;1.95;;;15.40;99.90;;;;;;5084850;28;20123;-41
2023/09/14 03:11:57;;;;;;;3.30;1.63;;;15.40;99.90;;;;;;5085144;28;20470;-41
2023/09/14 03:14:22;;;;;;;4.75;1.40;;;15.40;99.90;;;;;;5084705;28;20027;-42
2023/09/14 03:16:49;;;;;;;4.20;1.77;;;15.30;99.90;;;;;;5084629;28;20028;-42
2023/09/14 03:19:18;;;;;;;4.93;2.20;;;15.30;99.90;;;;;;5084351;28;20032;-42
2023/09/14 03:21:43;;;;;;;2.40;1.42;;;15.30;99.90;;;;;;5085417;28;20099;-42
2023/09/14 03:24:09;;;;;;;3.55;1.50;;;15.30;99.90;;;;;;5084633;28;20425;-42
2023/09/14 03:26:34;;;;;;;2.38;1.40;;;15.30;99.90;;;;;;5084622;28;20511;-42
2023/09/14 03:29:01;;;;;;;5.45;1.85;;;15.20;99.90;;;;;;5084315;28;20093;-42
2023/09/14 03:31:28;;;;;;;3.03;1.50;;;15.20;99.90;;;;;;5084741;28;20026;-41
2023/09/14 03:33:54;;;;;;;3.08;1.40;;;15.20;99.90;;;;;;5084138;28;20036;-42
2023/09/14 03:36:20;;;;;;;2.28;1.35;;;15.20;99.90;;;;;;5083861;28;20024;-42
2023/09/14 03:38:48;;;;;;;3.33;1.60;;;15.10;99.90;;;;;;5084980;28;20032;-41
2023/09/14 03:41:16;;;;;;;3.22;1.48;;;15.10;99.90;;;;;;5083385;28;20051;-42
2023/09/14 03:44:02;;;;;;;3.42;1.33;;;15.10;99.90;;;;;;5083734;28;20499;-42
2023/09/14 03:46:28;;;;;;;3.38;1.40;;;15.10;99.90;;;;;;5084204;28;20028;-42
2023/09/14 03:48:53;;;;;;;2.22;1.42;;;15.00;99.90;;;;;;5083598;28;20028;-42
2023/09/14 03:51:19;;;;;;;3.05;1.25;;;15.00;99.90;;;;;;5084293;28;20119;-42
2023/09/14 03:53:45;;;;;;;4.13;1.73;;;15.00;99.90;;;;;;5084767;28;20134;-42
2023/09/14 03:56:17;;;;;;;2.65;1.70;;;15.00;99.90;;;;;;5083426;28;20783;-41
2023/09/14 03:58:43;;;;;;;2.78;1.23;;;15.00;99.90;;;;;;5085404;28;20205;-42
2023/09/14 04:01:09;;;;;;;5.20;1.67;;;14.90;99.90;;;;;;5083730;28;20543;-41
2023/09/14 04:03:34;;;;;;;2.35;1.40;;;14.90;99.90;;;;;;5084977;28;20047;-42
2023/09/14 04:06:00;;;;;;;2.83;1.63;;;14.90;99.90;;;;;;5083912;28;20012;-42
2023/09/14 04:08:26;;;;;;;3.05;1.52;;;14.90;99.90;;;;;;5084224;28;20020;-42
2023/09/14 04:10:52;;;;;;;3.53;1.90;;;14.80;99.90;;;;;;5084501;28;20043;-42
2023/09/14 04:13:32;;;;;;;1.95;1.42;;;14.80;99.90;;;;;;5084270;28;20020;-43
2023/09/14 04:15:59;;;;;;;2.75;1.58;;;14.80;99.90;;;;;;5083982;28;20083;-42
2023/09/14 04:18:25;;;;;;;3.00;1.45;;;14.80;99.90;;;;;;5083907;28;20028;-42
2023/09/14 04:20:54;;;;;;;2.78;1.45;;;14.80;99.90;;;;;;5085219;28;20016;-42
2023/09/14 04:23:20;;;;;;;3.33;1.48;;;14.80;99.90;;;;;;5082997;28;20237;-42
2023/09/14 04:25:47;;;;;;;5.45;2.05;;;14.80;99.90;;;;;;5084815;28;20039;-42
2023/09/14 04:28:17;;;;;;;5.03;1.73;;;14.70;99.90;;;;;;5083363;28;20380;-42
2023/09/14 04:30:45;;;;;;;2.45;1.45;;;14.70;99.90;;;;;;5083798;28;20648;-43
2023/09/14 04:33:15;;;;;;;3.05;1.60;;;14.70;99.90;;;;;;5083974;28;20179;-43
2023/09/14 04:35:41;;;;;;;3.78;1.50;;;14.70;99.90;;;;;;5085194;28;20025;-42
2023/09/14 04:38:07;;;;;;;4.45;1.90;;;14.60;99.90;;;;;;5083688;28;20024;-42
2023/09/14 04:40:41;;;;;;;2.75;1.40;;;14.60;99.90;;;;;;5084461;28;20019;-42
2023/09/14 04:43:07;;;;;;;4.13;1.60;;;14.60;99.90;;;;;;5083274;28;20062;-40
2023/09/14 04:45:33;;;;;;;4.30;1.60;;;14.60;99.90;;;;;;5083327;28;20048;-43
2023/09/14 04:47:59;;;;;;;4.00;1.55;;;14.60;99.90;;;;;;5083147;28;20071;-43
2023/09/14 04:50:25;;;;;;;3.70;1.95;;;14.60;99.90;;;;;;5083312;28;20641;-43
2023/09/14 04:52:51;;;;;;;3.08;1.40;;;14.60;99.90;;;;;;5083753;28;20142;-42
2023/09/14 04:55:16;;;;;;;5.95;1.90;;;14.50;99.90;;;;;;5084194;28;20476;-43
2023/09/14 04:57:42;;;;;;;4.88;1.90;;;14.60;99.90;;;;;;5083768;28;20027;-43
2023/09/14 05:00:12;;;;;;;1.75;1.50;;;14.50;99.90;;;;;;5083739;28;20024;-43
2023/09/14 05:02:40;;;;;;;3.53;1.70;;;14.50;99.90;;;;;;5084118;28;20127;-42
2023/09/14 05:05:08;;;;;;;2.75;1.70;;;14.50;99.90;;;;;;5082412;28;20055;-42
2023/09/14 05:07:34;;;;;;;5.63;2.10;;;14.50;99.90;;;;;;5083862;28;20107;-42
2023/09/14 05:09:59;;;;;;;2.60;2.05;;;14.50;99.90;;;;;;5083363;28;20711;-43
2023/09/14 05:12:25;;;;;;;4.53;2.20;;;14.50;99.90;;;;;;5083828;28;20032;-42
2023/09/14 05:15:00;;;;;;;2.70;1.80;;;14.40;99.90;;;;;;5083664;28;20078;-43
2023/09/14 05:17:28;;;;;;;4.65;1.83;;;14.40;99.90;;;;;;5084400;28;20049;-43
2023/09/14 05:19:54;;;;;;;3.22;1.65;;;14.50;99.90;;;;;;5083369;28;20024;-43
2023/09/14 05:22:25;;;;;;;3.78;2.10;;;14.40;99.90;;;;;;5083974;28;20024;-42
2023/09/14 05:24:57;;;;;;;4.55;1.92;;;14.40;99.90;;;;;;5083797;28;20042;-43
2023/09/14 05:27:22;;;;;;;3.17;1.90;;;14.40;99.90;;;;;;5083348;28;20024;-42
2023/09/14 05:29:49;;;;;;;3.67;1.90;;;14.40;99.90;;;;;;5083889;28;20278;-43
2023/09/14 05:32:15;;;;;;;3.45;1.67;;;14.40;99.90;;;;;;5086957;28;20069;-43
2023/09/14 05:34:43;;;;;;;4.38;2.15;;;14.40;99.90;;;;;;5087085;28;20020;-42
2023/09/14 05:37:08;;;;;;;2.83;2.25;;;14.40;99.90;;;;;;5087041;28;20387;-42
2023/09/14 05:39:34;;;;;;;3.20;1.90;;;14.40;99.90;;;;;;5086750;28;20031;-42
2023/09/14 05:41:59;;;;;;;4.20;2.25;;;14.40;99.90;;;;;;5086317;28;20028;-42
2023/09/14 05:44:25;;;;;;;3.78;2.08;;;14.40;99.90;;;;;;5087138;28;20414;-42
2023/09/14 05:46:54;;;;;;;2.15;1.77;;;14.50;99.90;;;;;;5074915;28;20030;-41
2023/09/14 05:49:19;;;;;;;4.20;2.10;;;14.50;99.90;;;;;;5086769;28;20187;-43
2023/09/14 05:51:45;;;;;;;4.78;2.40;;;14.50;99.90;;;;;;5087272;28;20026;-42
2023/09/14 05:54:10;;;;;;;3.78;2.55;;;14.50;99.90;;;;;;5085308;28;20048;-43
2023/09/14 05:56:36;;;;;;;4.55;2.20;;;14.60;99.90;;;;;;5085641;28;20068;-42
2023/09/14 05:59:01;;;;;;;4.68;2.20;;;14.50;99.90;;;;;;5086637;28;20028;-43
2023/09/14 06:01:27;;;;;;;3.42;2.25;;;14.60;99.90;;;;;;5085806;28;20063;-43
2023/09/14 06:03:53;;;;;;;3.40;2.20;;;14.60;99.90;;;;;;5087009;28;20518;-42
2023/09/14 06:06:18;;;;;;;3.58;2.05;;;14.60;99.90;;;;;;5086248;28;20844;-42
2023/09/14 06:08:44;;;;;;;4.60;2.92;;;14.60;99.90;;;;;;5086221;28;20823;-43
2023/09/14 06:11:16;;;;;;;3.65;2.38;;;14.70;99.90;;;;;;5086162;28;20689;-43
2023/09/14 06:13:41;;;;;;;4.15;2.70;;;14.70;99.90;;;;;;5086557;28;20054;-42
2023/09/14 06:16:07;;;;;;;6.13;2.47;;;14.70;99.90;;;;;;5085517;28;20016;-42
2023/09/14 06:18:32;;;;;;;4.55;2.80;;;14.70;99.90;;;;;;5085180;28;20138;-43
2023/09/14 06:21:01;;;;;;;4.03;2.28;;;14.70;99.90;;;;;;5085948;28;20818;-41
2023/09/14 06:23:27;;;;;;;5.93;2.88;;;14.80;99.90;;;;;;5085470;28;20557;-43
2023/09/14 06:25:52;;;;;;;3.25;2.60;;;14.80;99.90;;;;;;5086122;28;20035;-42
2023/09/14 06:28:18;;;;;;;4.82;2.50;;;14.80;99.90;;;;;;5085372;28;20028;-42
2023/09/14 06:30:43;;;;;;;4.00;2.15;;;14.90;99.90;;;;;;5084381;28;20055;-42
2023/09/14 06:33:09;;;;;;;3.33;2.30;;;14.90;99.90;;;;;;5085718;28;20016;-43
2023/09/14 06:35:35;;;;;;;4.90;2.47;;;14.90;99.90;;;;;;5086918;28;20597;-42
2023/09/14 06:38:04;;;;;;;4.45;2.22;;;15.00;99.90;;;;;;5084947;28;20027;-42
2023/09/14 06:40:30;;;;;;;3.28;2.00;;;15.00;99.90;;;;;;5086215;28;20047;-41
2023/09/14 06:42:55;;;;;;;3.70;2.28;;;15.00;99.90;;;;;;5084805;28;20036;-42
2023/09/14 06:45:21;;;;;;;4.28;2.30;;;15.10;99.90;;;;;;5085644;28;20106;-42
2023/09/14 06:47:46;;;;;;;4.63;2.25;;;15.00;99.90;;;;;;5086098;28;20035;-43
2023/09/14 06:50:12;;;;;;;3.63;2.25;;;15.10;99.90;;;;;;5085032;28;20364;-42
2023/09/14 06:52:38;;;;;;;3.53;2.22;;;15.20;99.90;;;;;;5085532;28;20060;-42
2023/09/14 06:55:07;;;;;;;3.42;2.08;;;15.20;99.90;;;;;;5085455;28;20024;-42
2023/09/14 06:57:32;;;;;;;3.55;2.20;;;15.20;99.90;;;;;;5085220;28;20036;-42
2023/09/14 07:00:00;;;;;;;2.30;2.00;;;15.20;99.90;;;;;;5085163;28;20580;-43
2023/09/14 07:02:26;;;;;;;3.67;2.10;;;15.30;99.90;;;;;;5085173;28;20040;-42
2023/09/14 07:04:53;;;;;;;3.20;1.60;;;15.30;99.90;;;;;;5085333;28;20032;-42
2023/09/14 07:07:23;;;;;;;3.60;1.92;;;15.30;99.90;;;;;;5084578;28;20024;-41
2023/09/14 07:10:04;;;;;;;4.30;1.83;;;15.40;99.90;;;;;;5085356;28;20063;-42
2023/09/14 07:12:29;;;;;;;3.15;1.63;;;15.40;99.90;;;;;;5084997;28;20074;-42
2023/09/14 07:14:55;;;;;;;2.90;1.33;;;15.40;99.90;;;;;;5085183;28;20427;-42
2023/09/14 07:17:20;;;;;;;2.90;1.58;;;15.50;99.90;;;;;;5084557;28;20101;-43
2023/09/14 07:19:46;;;;;;;4.18;1.48;;;15.50;99.90;;;;;;5084433;28;20066;-43
2023/09/14 07:22:12;;;;;;;3.38;1.70;;;15.50;99.90;;;;;;5084254;28;20028;-42
2023/09/14 07:24:37;;;;;;;4.38;1.60;;;15.60;99.90;;;;;;5085366;28;20047;-41
2023/09/14 07:27:03;;;;;;;2.40;1.50;;;15.70;99.90;;;;;;5084052;28;20808;-42
2023/09/14 07:29:33;;;;;;;5.60;1.80;;;15.80;99.90;;;;;;5085236;28;20032;-42
2023/09/14 07:31:58;;;;;;;5.05;1.45;;;16.00;99.90;;;;;;5084611;28;20119;-43
2023/09/14 07:34:24;;;;;;;4.38;1.58;;;16.00;99.90;;;;;;5083873;28;20085;-42
2023/09/14 07:36:53;;;;;;;1.90;1.60;;;16.20;99.90;;;;;;5064629;28;20174;-42
2023/09/14 07:39:18;;;;;;;3.38;1.58;;;16.30;99.90;;;;;;5077291;28;20080;-42
2023/09/14 07:41:44;;;;;;;2.17;1.40;;;16.40;99.90;;;;;;5084928;28;20028;-43
2023/09/14 07:44:09;;;;;;;2.45;1.70;;;16.40;99.90;;;;;;5083852;28;20047;-42
2023/09/14 07:46:36;;;;;;;2.55;1.40;;;16.50;99.90;;;;;;5084309;28;20016;-42
2023/09/14 07:49:02;;;;;;;3.00;1.65;;;16.50;99.90;;;;;;5084271;28;20031;-43
2023/09/14 07:51:28;;;;;;;3.42;1.65;;;16.60;99.90;;;;;;5084907;28;20013;-42
2023/09/14 07:53:55;;;;;;;3.10;1.60;;;16.70;99.90;;;;;;5083385;28;20426;-43
2023/09/14 07:56:24;;;;;;;3.90;1.67;;;16.70;99.90;;;;;;5084241;28;20032;-42
2023/09/14 07:58:53;;;;;;;3.05;2.00;;;16.70;99.90;;;;;;5085180;28;20432;-43
2023/09/14 08:01:19;;;;;;;3.85;1.70;;;16.70;99.90;;;;;;5083451;28;20143;-42
2023/09/14 08:03:45;;;;;;;4.25;1.50;;;16.70;99.90;;;;;;5084471;28;20040;-42
2023/09/14 08:06:15;;;;;;;2.60;1.70;;;16.70;99.90;;;;;;5084101;28;20042;-41
2023/09/14 08:08:40;;;;;;;2.90;1.73;;;16.70;99.90;;;;;;5083535;28;20020;-42
2023/09/14 08:11:09;;;;;;;3.38;1.88;;;16.70;99.90;;;;;;5083907;28;20024;-42
2023/09/14 08:13:34;;;;;;;4.03;2.00;;;16.70;99.90;;;;;;5085448;28;20020;-43
2023/09/14 08:16:06;;;;;;;4.00;2.00;;;16.70;99.90;;;;;;5083014;28;20043;-42
2023/09/14 08:18:32;;;;;;;3.70;1.80;;;16.70;99.90;;;;;;5084686;28;20032;-42
2023/09/14 08:20:58;;;;;;;3.25;1.85;;;16.70;99.90;;;;;;5084493;28;20914;-42
2023/09/14 08:23:32;;;;;;;2.47;1.65;;;16.80;99.90;;;;;;5063477;28;20043;-42
2023/09/14 08:26:04;;;;;;;2.72;1.75;;;16.80;99.90;;;;;;5078974;28;20664;-42
2023/09/14 08:28:30;;;;;;;2.40;1.80;;;16.80;99.90;;;;;;5084380;28;20024;-42
2023/09/14 08:30:56;;;;;;;3.78;1.70;;;16.80;99.90;;;;;;5084511;28;20427;-42
2023/09/14 08:33:24;;;;;;;5.35;1.98;;;16.80;99.90;;;;;;5083976;28;20078;-42
2023/09/14 08:35:50;;;;;;;3.25;1.83;;;16.90;99.90;;;;;;5083844;28;20016;-43
2023/09/14 08:38:16;;;;;;;4.63;2.03;;;16.90;99.90;;;;;;5083846;28;20071;-43
2023/09/14 08:40:42;;;;;;;3.53;1.75;;;17.00;99.90;;;;;;5084267;28;20067;-43
2023/09/14 08:43:11;;;;;;;2.97;1.75;;;17.00;99.90;;;;;;5083058;28;20107;-43
2023/09/14 08:45:41;;;;;;;2.95;1.40;;;17.10;99.90;;;;;;5084424;28;20103;-42
2023/09/14 08:48:09;;;;;;;5.85;1.90;;;17.10;99.90;;;;;;5083667;28;20472;-42
2023/09/14 08:50:39;;;;;;;6.63;2.30;;;17.20;99.90;;;;;;5083665;28;20023;-42
2023/09/14 08:53:05;;;;;;;4.22;1.75;;;17.20;99.90;;;;;;5072808;28;20020;-43
2023/09/14 08:55:35;;;;;;;3.00;1.70;;;17.30;99.90;;;;;;5083895;28;20383;-42
2023/09/14 08:58:02;;;;;;;4.35;2.03;;;17.40;99.90;;;;;;5082885;28;20093;-42
2023/09/14 09:00:29;;;;;;;4.70;2.33;;;17.40;99.90;;;;;;5083975;28;20039;-42
2023/09/14 09:02:56;;;;;;;6.13;2.55;;;17.40;99.90;;;;;;5083978;28;20066;-42
2023/09/14 09:05:24;;;;;;;4.60;2.55;;;17.50;99.90;;;;;;5086701;28;20020;-43
2023/09/14 09:07:51;;;;;;;3.92;2.40;;;17.50;99.90;;;;;;5087812;28;20443;-42
2023/09/14 09:10:24;;;;;;;5.63;2.70;;;17.60;99.90;;;;;;5086744;28;20085;-43
2023/09/14 09:12:57;;;;;;;3.92;2.67;;;17.70;99.90;;;;;;5086679;28;20035;-42
2023/09/14 09:15:24;;;;;;;4.43;2.40;;;17.70;99.90;;;;;;5087535;28;20020;-43
2023/09/14 09:18:07;;;;;;;4.13;2.13;;;17.80;99.90;;;;;;5086547;28;20032;-42
2023/09/14 09:20:45;;;;;;;7.65;3.00;;;17.80;99.90;;;;;;5067493;28;20025;-42
2023/09/14 09:23:15;;;;;;;5.68;2.70;;;17.80;99.90;;;;;;5083987;28;20399;-42
2023/09/14 09:25:53;;;;;;;5.20;2.53;;;17.80;99.90;;;;;;5086890;28;20248;-42
2023/09/14 09:28:27;;;;;;;4.72;2.22;;;17.80;99.90;;;;;;5086469;28;20567;-42
2023/09/14 09:30:54;;;;;;;3.60;2.42;;;17.80;99.90;;;;;;5088166;28;20509;-41
2023/09/14 09:33:35;;;;;;;4.68;2.72;;;17.80;99.90;;;;;;5086577;28;20144;-42
2023/09/14 09:36:14;;;;;;;4.72;2.08;;;17.90;99.90;;;;;;5067192;28;20040;-43
2023/09/14 09:38:40;;;;;;;5.93;2.80;;;17.90;99.90;;;;;;5084886;28;20059;-42
2023/09/14 09:41:10;;;;;;;5.95;2.45;;;17.90;99.90;;;;;;5086811;28;20084;-43
2023/09/14 09:43:36;;;;;;;4.15;2.30;;;18.00;99.90;;;;;;5087329;28;20070;-42
2023/09/14 09:46:02;;;;;;;4.05;2.28;;;18.10;99.90;;;;;;5086072;28;20749;-43
2023/09/14 09:48:28;;;;;;;4.35;2.40;;;18.30;99.90;;;;;;5086911;28;20024;-43
2023/09/14 09:51:00;;;;;;;5.05;2.63;;;18.40;99.90;;;;;;5087124;28;20034;-42
2023/09/14 09:53:26;;;;;;;4.20;2.15;;;18.50;99.90;;;;;;5086103;28;20020;-43
2023/09/14 09:55:52;;;;;;;3.08;2.00;;;18.60;99.90;;;;;;5087056;28;20027;-42
2023/09/14 09:58:21;;;;;;;2.33;1.73;;;18.70;99.90;;;;;;5085866;28;20057;-42
2023/09/14 10:00:49;;;;;;;4.50;2.40;;;18.80;99.90;;;;;;5085841;28;20036;-43
2023/09/14 10:03:19;;;;;;;5.03;2.60;;;18.90;99.90;;;;;;5085679;28;20028;-43
2023/09/14 10:05:55;;;;;;;4.15;2.13;;;19.00;99.90;;;;;;5086095;28;20028;-42
2023/09/14 10:08:21;;;;;;;4.28;2.33;;;19.00;99.90;;;;;;5084875;28;20672;-43
2023/09/14 10:10:51;;;;;;;4.03;2.42;;;19.00;99.90;;;;;;5087055;28;20035;-43
2023/09/14 10:13:22;;;;;;;3.55;1.92;;;19.00;99.90;;;;;;5086484;28;20147;-43
2023/09/14 10:15:53;;;;;;;2.63;1.83;;;19.00;99.90;;;;;;5085331;28;20593;-42
2023/09/14 10:18:24;;;;;;;2.90;2.20;;;19.00;99.90;;;;;;5085794;28;20064;-42
2023/09/14 10:20:57;;;;;;;3.97;2.17;;;19.10;99.90;;;;;;5086810;28;20044;-43
2023/09/14 10:23:22;;;;;;;;;;;19.10;99.90;;;;;;5086351;28;20039;-42
2023/09/14 10:25:50;;;;;;;2.95;1.80;;;19.10;99.90;;;;;;5086110;28;20271;-43
2023/09/14 10:28:26;;;;;;;2.90;1.92;;;19.10;99.90;;;;;;5085419;28;20027;-42
2023/09/14 10:30:53;;;;;;;2.90;1.70;;;19.10;99.90;;;;;;5086439;28;20023;-42
2023/09/14 10:33:23;;;;;;;2.95;1.90;;;19.10;99.90;;;;;;5086432;28;20024;-42
2023/09/14 10:35:55;;;;;;;4.40;2.00;;;19.10;99.90;;;;;;5085799;28;20551;-42
2023/09/14 10:38:25;;;;;;;2.93;1.90;;;19.10;99.90;;;;;;5086075;28;20035;-42
2023/09/14 10:40:52;;;;;;;2.72;1.80;;;19.10;99.90;;;;;;5086249;28;20463;-42
2023/09/14 10:43:18;;;;;;;2.85;1.95;;;19.00;99.90;;;;;;5085160;28;20032;-42
2023/09/14 10:45:45;;;;;;;3.75;1.85;;;19.10;99.90;;;;;;5085662;28;20020;-43
2023/09/14 10:48:16;;;;;;;3.25;1.98;;;19.10;99.90;;;;;;5084985;28;20032;-41
2023/09/14 10:50:42;;;;;;;4.65;2.20;;;19.20;99.90;;;;;;5085616;28;20024;-42
2023/09/14 10:53:08;;;;;;;2.95;1.80;;;19.30;99.90;;;;;;5085368;28;20028;-43
2023/09/14 10:55:38;;;;;;;4.93;2.00;;;19.30;99.90;;;;;;5085500;28;20062;-42
2023/09/14 10:58:04;;;;;;;5.30;2.33;;;19.40;99.90;;;;;;5084374;28;20032;-43
2023/09/14 11:00:38;;;;;;;3.55;1.90;;;19.40;99.90;;;;;;5085256;28;20019;-42
2023/09/14 11:03:06;;;;;;;4.57;2.15;;;19.40;99.90;;;;;;5084964;28;20048;-43
2023/09/14 11:05:47;;;;;;;6.50;2.10;;;19.40;99.90;;;;;;5084545;28;20492;-42
2023/09/14 11:08:14;;;;;;;3.42;2.00;;;19.50;99.90;;;;;;5085363;28;20099;-43
2023/09/14 11:10:56;;;;;;;2.15;1.52;;;19.60;99.90;;;;;;5084692;28;20070;-42
2023/09/14 11:13:25;;;;;;;2.22;1.63;;;19.70;99.90;;;;;;5084498;28;20020;-42
2023/09/14 11:16:18;;;;;;;2.65;1.80;;;19.80;99.90;;;;;;5085114;28;20119;-43
2023/09/14 11:18:43;;;;;;;;;;;19.90;99.90;;;;;;5085715;28;20575;-43
2023/09/14 11:21:31;;;;;;;1.95;1.30;;;20.00;99.90;;;;;;5084393;28;20562;-42
2023/09/14 11:23:57;;;;;;;3.53;1.35;;;20.10;99.90;;;;;;5084074;28;20040;-41
2023/09/14 11:26:42;;;;;;;3.42;1.65;;;20.10;99.90;;;;;;5084356;28;20038;-41
2023/09/14 11:29:08;;;;;;;2.65;1.48;;;20.10;99.90;;;;;;5084655;28;20035;-43
2023/09/14 11:31:35;;;;;;;2.78;1.60;;;20.00;99.90;;;;;;5084301;28;20024;-43
2023/09/14 11:34:06;;;;;;;3.00;1.90;;;20.00;99.90;;;;;;5084735;28;20020;-43
2023/09/14 11:36:34;;;;;;;2.72;1.40;;;20.00;99.90;;;;;;5084610;28;20209;-41
2023/09/14 11:39:08;;;;;;;2.67;1.45;;;20.00;99.90;;;;;;5084551;28;20030;-42
2023/09/14 11:41:52;;;;;;;2.17;1.50;;;20.10;99.90;;;;;;5085029;28;20554;-42
2023/09/14 11:44:18;;;;;;;2.05;1.58;;;20.10;99.90;;;;;;5084224;28;20399;-43
2023/09/14 11:46:47;;;;;;;2.15;1.60;;;20.20;99.90;;;;;;5084339;28;20019;-42
2023/09/14 11:49:15;;;;;;;2.80;2.05;;;20.10;99.90;;;;;;5084203;28;20059;-43
2023/09/14 11:51:40;;;;;;;2.13;1.52;;;20.10;99.90;;;;;;5085349;28;20069;-43
2023/09/14 11:54:09;;;;;;;1.70;1.42;;;20.10;99.90;;;;;;5083726;28;20032;-42
2023/09/14 11:56:38;;;;;;;2.78;1.50;;;20.10;99.90;;;;;;5085205;28;20107;-43
2023/09/14 11:59:04;;;;;;;2.30;1.80;;;20.20;99.90;;;;;;5084444;28;20353;-43
2023/09/14 12:01:34;;;;;;;2.83;1.70;;;20.20;99.90;;;;;;5082847;28;20119;-43
2023/09/14 12:04:02;;;;;;;2.38;1.65;;;20.20;99.90;;;;;;5080637;28;20044;-43
2023/09/14 12:06:28;;;;;;;3.90;1.80;;;20.20;99.90;;;;;;5084202;28;20024;-42
2023/09/14 12:08:54;;;;;;;3.40;1.45;;;20.30;99.90;;;;;;5084655;28;20028;-43
2023/09/14 12:11:22;;;;;;;3.65;1.95;;;20.40;99.90;;;;;;5084151;28;20093;-43
2023/09/14 12:13:57;;;;;;;2.80;1.73;;;20.50;99.90;;;;;;5083910;28;20035;-41
2023/09/14 12:16:27;;;;;;;3.58;1.50;;;20.50;99.90;;;;;;5084882;28;20099;-42
2023/09/14 12:18:53;;;;;;;1.80;1.40;;;20.50;99.90;;;;;;5084637;28;20075;-43
2023/09/14 12:21:20;;;;;;;4.03;2.30;;;20.50;99.90;;;;;;5063518;28;20052;-42
2023/09/14 12:23:48;;;;;;;2.17;1.73;;;20.60;99.90;;;;;;5079265;28;20040;-43
2023/09/14 12:26:19;;;;;;;1.88;1.52;;;20.60;99.90;;;;;;5083802;28;20024;-42
2023/09/14 12:28:56;;;;;;;2.08;1.73;;;20.60;99.90;;;;;;5083518;28;20076;-42
2023/09/14 12:31:24;;;;;;;1.95;1.70;;;20.70;99.90;;;;;;5084321;28;20032;-42
2023/09/14 12:33:50;;;;;;;2.95;1.83;;;20.70;99.90;;;;;;5084468;28;20655;-42
2023/09/14 12:36:22;;;;;;;2.85;1.70;;;20.80;99.90;;;;;;5083297;28;20044;-43
2023/09/14 12:38:48;;;;;;;2.90;1.60;;;20.90;99.90;;;;;;5085512;28;20024;-43
2023/09/14 12:41:16;;;;;;;2.45;1.70;;;21.00;99.90;;;;;;5088218;28;20083;-43
2023/09/14 12:43:43;;;;;;;1.95;1.50;;;21.00;99.90;;;;;;5087771;28;20036;-42
2023/09/14 12:46:10;;;;;;;3.13;1.70;;;21.10;99.90;;;;;;5088504;28;20027;-42
2023/09/14 12:48:35;;;;;;;3.88;2.00;;;21.00;99.90;;;;;;5087422;28;20020;-43
2023/09/14 12:51:05;;;;;;;2.50;1.77;;;21.00;99.90;;;;;;5075602;28;20494;-42
2023/09/14 12:53:40;;;;;;;3.50;1.92;;;20.90;99.90;;;;;;5088054;28;20099;-42